KALO/ALO METAR and TAF weather

Enter ICAO airport designator
Station Type Date Time Source
KALO METAR 2022/06/28 08:54 UTC NOAA

KALO 280854Z AUTO 24004KT 10SM CLR 17/11 A3018 RMK AO2 SLP216 T01670111 56004 $


Station Type Date Time Source
KALO Decoded METAR 2022/06/28 08:54 UTC NOAA

WATERLOO MUNICIPAL AIRPORT, IA, United States (KALO) 42-33N 92-24W 264M
Jun 28, 2022 - 04:54 AM EDT / 2022.06.28 0854 UTC
Wind: from the WSW (240 degrees) at 5 MPH (4 KT):0
Visibility: 10 mile(s):0
Sky conditions: clear
Temperature: 62.1 F (16.7 C)
Dew Point: 52.0 F (11.1 C)
Relative Humidity: 69%
Pressure (altimeter): 30.18 in. Hg (1022 hPa)
Pressure tendency: 0.01 inches (0.4 hPa) lower than three hours ago
ob: KALO 280854Z AUTO 24004KT 10SM CLR 17/11 A3018 RMK AO2 SLP216 T01670111 56004
cycle: 9

Station Type Date Time Source
KALO TAF 2022/06/28 06:22 UTC NOAA

TAF KALO 280520Z 2806/2906 21006KT P6SM SKC
FM281200 20003KT P6SM VCSH BKN100
FM281700 21014G26KT P6SM SCT200
FM290200 24006KT P6SM VCSH SCT200

Example: see airport list